Time;durP1;ratioP1;P1;durP2;ratioP2;P2;SDS_P1;SDS_P2;PMS_P1;PMS_P2;Temp;Humidity;BMP_temperature;BMP_pressure;BME280_temperature;BME280_humidity;BME280_pressure;Samples;Min_cycle;Max_cycle;Signal;HPM_P1;HPM_P2
2022/11/14 00:01:57;;;;;;;30.70;18.13;;;;;;;7.71;100.00;101612.25;4988340;28;20502;-76
2022/11/14 00:04:44;;;;;;;32.55;16.15;;;;;;;7.58;100.00;101607.06;4987868;28;20100;-76
2022/11/14 00:07:29;;;;;;;33.97;16.55;;;;;;;7.50;100.00;101606.81;5004670;28;20135;-76
2022/11/14 00:10:14;;;;;;;31.80;17.40;;;;;;;7.51;100.00;101600.53;4985062;28;20050;-78
2022/11/14 00:12:58;;;;;;;33.00;19.55;;;;;;;7.44;100.00;101604.66;4989226;28;20057;-76
2022/11/14 00:15:43;;;;;;;34.70;17.52;;;;;;;7.50;100.00;101606.81;4989141;28;20049;-76
2022/11/14 00:18:27;;;;;;;32.17;17.27;;;;;;;7.46;100.00;101597.41;5002960;28;20048;-76
2022/11/14 00:21:11;;;;;;;37.42;18.10;;;;;;;7.56;100.00;101609.00;4987814;28;20522;-76
2022/11/14 00:23:54;;;;;;;33.58;18.33;;;;;;;7.53;100.00;101597.75;4988477;28;20046;-75
2022/11/14 00:26:38;;;;;;;32.45;18.65;;;;;;;7.51;100.00;101583.75;4987090;28;21014;-78
2022/11/14 00:29:22;;;;;;;29.05;17.08;;;;;;;7.53;100.00;101587.13;4987295;28;20675;-75
2022/11/14 00:32:06;;;;;;;29.67;17.63;;;;;;;7.59;100.00;101586.66;4987604;28;20049;-76
2022/11/14 00:34:51;;;;;;;36.85;17.95;;;;;;;7.59;100.00;101574.22;5007381;28;20111;-76
2022/11/14 00:37:35;;;;;;;32.88;18.23;;;;;;;7.46;100.00;101554.88;5006646;28;20071;-77
2022/11/14 00:40:18;;;;;;;34.38;17.67;;;;;;;7.42;100.00;101558.75;5006903;28;20045;-76
2022/11/14 00:43:02;;;;;;;35.60;18.52;;;;;;;7.32;100.00;101553.31;4997155;28;20049;-77
2022/11/14 00:45:47;;;;;;;33.60;18.15;;;;;;;7.28;100.00;101554.56;4987236;28;20042;-76
2022/11/14 00:48:31;;;;;;;41.38;21.00;;;;;;;7.23;100.00;101558.53;4986811;28;20115;-76
2022/11/14 00:51:14;;;;;;;38.63;19.75;;;;;;;7.19;100.00;101561.44;4981618;28;20160;-77
2022/11/14 00:53:58;;;;;;;41.83;19.90;;;;;;;7.09;100.00;101562.25;4987191;28;20041;-78
2022/11/14 00:56:42;;;;;;;41.53;19.90;;;;;;;7.03;100.00;101557.44;4986533;28;20053;-76
2022/11/14 00:59:26;;;;;;;36.47;18.85;;;;;;;6.95;100.00;101566.00;4988045;28;20041;-76
2022/11/14 01:02:11;;;;;;;38.85;20.52;;;;;;;6.90;100.00;101574.31;4988260;28;20495;-78
2022/11/14 01:04:55;;;;;;;41.55;21.05;;;;;;;6.91;100.00;101585.78;4986546;28;20182;-77
2022/11/14 01:07:39;;;;;;;40.40;20.38;;;;;;;6.87;100.00;101594.94;4987428;28;20868;-76
2022/11/14 01:10:24;;;;;;;37.63;19.27;;;;;;;6.84;100.00;101609.31;4985107;28;20073;-79
2022/11/14 01:13:09;;;;;;;36.05;19.55;;;;;;;6.75;100.00;101604.69;4992572;28;20092;-78
2022/11/14 01:15:53;;;;;;;36.92;18.85;;;;;;;6.79;100.00;101618.56;5007466;28;20064;-77
2022/11/14 01:18:39;;;;;;;42.22;18.95;;;;;;;6.73;100.00;101620.72;5005637;28;20139;-76
2022/11/14 01:21:23;;;;;;;40.30;20.10;;;;;;;6.87;100.00;101632.13;5006271;28;20096;-76
2022/11/14 01:24:07;;;;;;;37.15;20.77;;;;;;;6.83;100.00;101620.03;4987931;28;20045;-76
2022/11/14 01:26:54;;;;;;;43.92;23.02;;;;;;;6.91;100.00;101630.94;4986018;28;20052;-75
2022/11/14 01:29:38;;;;;;;40.53;20.40;;;;;;;6.96;100.00;101624.28;4986053;28;20054;-76
2022/11/14 01:32:22;;;;;;;39.80;19.75;;;;;;;6.95;100.00;101619.09;4988275;28;20080;-77
2022/11/14 01:35:06;;;;;;;43.72;22.70;;;;;;;6.99;100.00;101609.94;4986437;28;20100;-77
2022/11/14 01:37:50;;;;;;;42.13;21.15;;;;;;;7.02;100.00;101615.00;4986215;28;20218;-77
2022/11/14 01:40:41;;;;;;;47.35;23.58;;;;;;;7.10;100.00;101611.78;4986202;28;20037;-76
2022/11/14 01:43:34;;;;;;;42.42;21.95;;;;;;;7.14;100.00;101613.19;4985674;28;20130;-76
2022/11/14 01:46:22;;;;;;;39.17;21.15;;;;;;;7.08;100.00;101601.25;4986303;28;20057;-76
2022/11/14 01:49:20;;;;;;;42.17;21.65;;;;;;;7.12;100.00;101600.06;4986429;28;20089;-76
2022/11/14 01:52:12;;;;;;;41.92;22.20;;;;;;;7.11;100.00;101586.91;4986471;28;20049;-77
2022/11/14 01:55:00;;;;;;;40.42;21.38;;;;;;;7.06;100.00;101583.75;5005395;28;20053;-77
2022/11/14 01:57:46;;;;;;;45.83;22.42;;;;;;;7.13;100.00;101583.16;4987129;28;20049;-77
2022/11/14 02:00:31;;;;;;;43.78;21.48;;;;;;;7.09;100.00;101572.88;4986373;28;20112;-77
2022/11/14 02:03:16;;;;;;;47.80;23.50;;;;;;;7.11;100.00;101571.78;4990622;28;20061;-77
2022/11/14 02:06:01;;;;;;;44.47;22.90;;;;;;;7.14;100.00;101560.97;4985907;28;20053;-77
2022/11/14 02:08:47;;;;;;;46.05;24.58;;;;;;;7.06;100.00;101546.59;4986331;28;20118;-76
2022/11/14 02:11:33;;;;;;;;;;;;;;;7.09;100.00;101552.47;4984336;28;20073;-77
2022/11/14 02:14:18;;;;;;;42.92;22.05;;;;;;;7.06;100.00;101547.41;4985874;28;19964;-77
2022/11/14 02:17:03;;;;;;;45.63;21.63;;;;;;;7.06;100.00;101536.78;4986641;28;20978;-77
2022/11/14 02:19:51;;;;;;;48.80;24.23;;;;;;;7.01;100.00;101531.00;4990091;28;20148;-77
2022/11/14 02:22:35;;;;;;;44.13;22.33;;;;;;;7.07;100.00;101532.31;4989897;28;20061;-76
2022/11/14 02:25:19;;;;;;;41.50;23.13;;;;;;;7.04;100.00;101528.09;4990907;28;20443;-77
2022/11/14 02:28:09;;;;;;;43.22;22.10;;;;;;;7.10;100.00;101538.25;5010506;28;20107;-77
2022/11/14 02:30:54;;;;;;;42.90;21.83;;;;;;;7.02;100.00;101513.25;4993115;28;20064;-77
2022/11/14 02:33:39;;;;;;;44.53;22.10;;;;;;;6.96;100.00;101503.97;4991883;28;20478;-77
2022/11/14 02:36:23;;;;;;;44.88;22.83;;;;;;;7.03;100.00;101507.84;4990534;28;20192;-76
2022/11/14 02:39:07;;;;;;;47.53;23.02;;;;;;;7.07;100.00;101500.47;4987496;28;20077;-76
2022/11/14 02:41:51;;;;;;;46.85;21.33;;;;;;;7.06;100.00;101491.66;4990602;28;20061;-76
2022/11/14 02:44:35;;;;;;;50.08;26.00;;;;;;;6.96;100.00;101490.72;4989341;28;20049;-76
2022/11/14 02:47:19;;;;;;;46.58;22.25;;;;;;;7.00;100.00;101494.81;4984358;28;20646;-76
2022/11/14 02:50:04;;;;;;;50.10;23.98;;;;;;;6.91;100.00;101487.56;4991102;28;20037;-76
2022/11/14 02:52:48;;;;;;;48.97;25.30;;;;;;;6.97;100.00;101489.72;4994146;28;20049;-76
2022/11/14 02:55:32;;;;;;;51.22;23.52;;;;;;;6.96;100.00;101493.38;4990228;28;20048;-76
2022/11/14 02:58:16;;;;;;;54.38;25.10;;;;;;;6.95;100.00;101499.63;4989379;28;20052;-76
2022/11/14 03:01:00;;;;;;;45.95;24.42;;;;;;;6.94;100.00;101495.28;4982061;28;20049;-76
2022/11/14 03:03:45;;;;;;;46.60;24.00;;;;;;;7.00;100.00;101501.91;4990609;28;20041;-76
2022/11/14 03:06:29;;;;;;;51.93;23.97;;;;;;;6.91;100.00;101487.56;4989028;28;20126;-76
2022/11/14 03:09:13;;;;;;;46.95;23.42;;;;;;;6.96;100.00;101494.19;4989131;28;20836;-76
2022/11/14 03:11:57;;;;;;;53.50;24.80;;;;;;;6.86;100.00;101477.31;5009938;28;20104;-76
2022/11/14 03:14:41;;;;;;;49.40;25.17;;;;;;;6.83;100.00;101471.38;5009095;28;20127;-77
2022/11/14 03:17:25;;;;;;;46.92;24.55;;;;;;;6.88;100.00;101479.84;5001322;28;20049;-76
2022/11/14 03:20:09;;;;;;;47.88;24.88;;;;;;;6.86;100.00;101468.47;4988688;28;20049;-77
2022/11/14 03:22:53;;;;;;;45.03;24.30;;;;;;;6.82;100.00;101465.25;4989512;28;20732;-76
2022/11/14 03:25:37;;;;;;;50.13;26.52;;;;;;;6.78;100.00;101453.16;4989649;28;20044;-76
2022/11/14 03:28:21;;;;;;;45.00;22.95;;;;;;;6.74;100.00;101447.28;4988857;28;20045;-76
2022/11/14 03:31:06;;;;;;;52.15;26.55;;;;;;;6.75;100.00;101454.25;4983054;28;20037;-76
2022/11/14 03:33:50;;;;;;;50.15;25.42;;;;;;;6.69;100.00;101449.41;4990081;28;20108;-76
2022/11/14 03:36:35;;;;;;;51.60;26.70;;;;;;;6.83;100.00;101458.13;4989889;28;20050;-76
2022/11/14 03:39:19;;;;;;;47.72;25.05;;;;;;;6.83;100.00;101463.44;4988642;28;20406;-76
2022/11/14 03:42:03;;;;;;;52.08;24.08;;;;;;;6.74;100.00;101452.59;4991853;28;20046;-76
2022/11/14 03:44:47;;;;;;;49.08;24.48;;;;;;;6.64;100.00;101440.97;4988574;28;20680;-77
2022/11/14 03:47:31;;;;;;;53.40;25.08;;;;;;;6.69;100.00;101454.72;4987906;28;20041;-77
2022/11/14 03:50:15;;;;;;;46.08;22.80;;;;;;;6.71;100.00;101452.81;4989579;28;20097;-76
2022/11/14 03:53:00;;;;;;;47.58;25.23;;;;;;;6.66;100.00;101441.72;4988192;28;20049;-76
2022/11/14 03:55:43;;;;;;;44.00;22.13;;;;;;;6.64;100.00;101429.53;4988463;28;20534;-77
2022/11/14 03:58:27;;;;;;;51.30;26.33;;;;;;;6.58;100.00;101422.91;4987959;28;20057;-76
2022/11/14 04:01:12;;;;;;;46.78;24.30;;;;;;;6.53;100.00;101412.66;4987158;28;20081;-76
2022/11/14 04:03:55;;;;;;;43.03;23.17;;;;;;;6.61;100.00;101427.97;4988392;28;20518;-76
2022/11/14 04:06:39;;;;;;;52.63;25.05;;;;;;;6.56;100.00;101416.88;4987773;28;20069;-76
2022/11/14 04:09:23;;;;;;;44.22;23.23;;;;;;;6.53;100.00;101419.75;4988959;28;20073;-76
2022/11/14 04:12:07;;;;;;;45.08;23.13;;;;;;;6.51;100.00;101427.00;5008834;28;20044;-77
2022/11/14 04:14:51;;;;;;;46.63;25.20;;;;;;;6.53;100.00;101428.56;5007163;28;20061;-76
2022/11/14 04:17:35;;;;;;;50.97;25.55;;;;;;;6.49;100.00;101424.47;5007245;28;20502;-77
2022/11/14 04:20:19;;;;;;;40.33;22.80;;;;;;;6.52;100.00;101432.16;4991925;28;20603;-76
2022/11/14 04:23:03;;;;;;;44.72;23.73;;;;;;;6.48;100.00;101429.88;4987512;28;20069;-76
2022/11/14 04:25:47;;;;;;;44.42;23.05;;;;;;;6.55;100.00;101437.25;4988215;28;20104;-76
2022/11/14 04:28:31;;;;;;;49.80;24.88;;;;;;;6.54;100.00;101432.06;4988174;28;20053;-77
2022/11/14 04:31:15;;;;;;;47.50;22.80;;;;;;;6.52;100.00;101428.69;4987797;28;20126;-76
2022/11/14 04:33:59;;;;;;;44.38;22.55;;;;;;;6.55;100.00;101431.09;4987821;28;20706;-77
2022/11/14 04:36:43;;;;;;;43.95;22.85;;;;;;;6.66;100.00;101438.22;4987405;28;20112;-77
2022/11/14 04:39:27;;;;;;;46.97;23.27;;;;;;;6.66;100.00;101438.22;4987334;28;20208;-76
2022/11/14 04:42:11;;;;;;;43.35;22.77;;;;;;;6.69;100.00;101436.16;4987451;28;20045;-77
2022/11/14 04:44:55;;;;;;;42.25;23.88;;;;;;;6.80;100.00;101440.63;5006869;28;20099;-76
2022/11/14 04:47:43;;;;;;;46.75;23.50;;;;;;;6.69;100.00;101427.34;4987695;28;20180;-76
2022/11/14 04:50:27;;;;;;;47.10;23.05;;;;;;;6.69;100.00;101414.94;4987927;28;20045;-76
2022/11/14 04:53:11;;;;;;;44.80;23.10;;;;;;;6.62;100.00;101413.72;4988443;28;20054;-76
2022/11/14 04:55:55;;;;;;;44.65;23.88;;;;;;;6.59;100.00;101410.47;4995023;28;20081;-76
2022/11/14 04:58:39;;;;;;;43.88;22.77;;;;;;;6.66;100.00;101423.13;4986796;28;20049;-76
2022/11/14 05:01:23;;;;;;;51.30;24.35;;;;;;;6.58;100.00;101420.25;4982759;28;20169;-76
2022/11/14 05:04:07;;;;;;;49.30;24.70;;;;;;;6.57;100.00;101418.56;4987641;28;20049;-76
2022/11/14 05:06:51;;;;;;;49.42;25.58;;;;;;;6.50;100.00;101420.00;4990693;28;20118;-76
2022/11/14 05:09:35;;;;;;;49.38;24.48;;;;;;;6.51;100.00;101419.03;4988692;28;20037;-76
2022/11/14 05:12:19;;;;;;;44.92;23.20;;;;;;;6.54;100.00;101419.63;5006642;28;20037;-76
2022/11/14 05:15:03;;;;;;;44.08;22.45;;;;;;;6.55;100.00;101421.34;5006248;28;20532;-76
2022/11/14 05:17:48;;;;;;;43.70;22.17;;;;;;;6.53;100.00;101414.44;5003769;28;20110;-76
2022/11/14 05:20:32;;;;;;;42.92;23.58;;;;;;;6.55;100.00;101416.03;4987970;28;20153;-76
2022/11/14 05:23:22;;;;;;;47.50;22.95;;;;;;;6.44;100.00;101401.88;5002054;28;20136;-76
2022/11/14 05:26:13;;;;;;;42.35;22.85;;;;;;;6.46;100.00;101399.97;5000374;28;20562;-76
2022/11/14 05:28:56;;;;;;;42.63;23.13;;;;;;;6.31;100.00;101386.09;4996802;28;20053;-76
2022/11/14 05:31:40;;;;;;;41.85;23.60;;;;;;;6.29;100.00;101377.41;4988208;28;20096;-78
2022/11/14 05:34:24;;;;;;;49.63;24.35;;;;;;;6.26;100.00;101383.81;4986297;28;20558;-78
2022/11/14 05:37:08;;;;;;;51.40;25.00;;;;;;;6.19;100.00;101372.00;5007752;28;20108;-75
2022/11/14 05:39:52;;;;;;;47.55;23.67;;;;;;;6.31;100.00;101392.25;5006083;28;20048;-76
2022/11/14 05:42:36;;;;;;;44.72;24.13;;;;;;;6.40;100.00;101400.47;5004030;28;20105;-76
2022/11/14 05:45:20;;;;;;;47.95;26.08;;;;;;;6.34;100.00;101384.06;4988984;28;20471;-78
2022/11/14 05:48:04;;;;;;;47.28;25.23;;;;;;;6.36;100.00;101388.41;4980912;28;20097;-78
2022/11/14 05:50:53;;;;;;;52.10;24.63;;;;;;;6.31;100.00;101386.94;4990036;28;20136;-78
2022/11/14 05:53:38;;;;;;;47.55;23.98;;;;;;;6.36;100.00;101389.25;4988773;28;20060;-77
2022/11/14 05:56:23;;;;;;;44.35;23.08;;;;;;;6.27;100.00;101396.09;4986048;28;20115;-77
2022/11/14 05:59:07;;;;;;;46.85;25.48;;;;;;;6.33;100.00;101385.00;4988824;28;20108;-78
2022/11/14 06:01:51;;;;;;;48.38;24.42;;;;;;;6.26;100.00;101385.63;4988055;28;20057;-77
2022/11/14 06:04:35;;;;;;;45.75;23.00;;;;;;;6.24;100.00;101371.63;4986625;28;20049;-76
2022/11/14 06:07:18;;;;;;;49.70;25.65;;;;;;;6.24;100.00;101369.81;4987862;28;20143;-78
2022/11/14 06:10:03;;;;;;;50.47;25.25;;;;;;;6.32;100.00;101374.53;4981353;28;20061;-78
2022/11/14 06:12:47;;;;;;;45.95;24.45;;;;;;;6.43;100.00;101386.94;4986799;28;20049;-77
2022/11/14 06:15:31;;;;;;;47.28;25.45;;;;;;;6.40;100.00;101374.78;5003206;28;20040;-77
2022/11/14 06:18:15;;;;;;;45.45;23.73;;;;;;;6.30;100.00;101376.47;5006031;28;20107;-77
2022/11/14 06:21:01;;;;;;;49.10;23.38;;;;;;;6.32;100.00;101391.28;5000335;28;20126;-76
2022/11/14 06:23:46;;;;;;;45.80;23.38;;;;;;;6.32;100.00;101386.00;4985439;28;20050;-76
2022/11/14 06:26:31;;;;;;;50.00;24.48;;;;;;;6.26;100.00;101378.50;4986557;28;20420;-76
2022/11/14 06:29:15;;;;;;;49.40;25.00;;;;;;;6.30;100.00;101385.25;4985649;28;20622;-75
2022/11/14 06:31:59;;;;;;;47.28;24.58;;;;;;;6.26;100.00;101370.53;4986875;28;20100;-76
2022/11/14 06:34:43;;;;;;;49.15;24.88;;;;;;;6.37;100.00;101382.97;4986858;28;20542;-76
2022/11/14 06:37:26;;;;;;;51.45;25.42;;;;;;;6.38;100.00;101371.41;4986608;28;20120;-77
2022/11/14 06:40:10;;;;;;;51.70;25.35;;;;;;;6.36;100.00;101364.53;4986702;28;20064;-76
2022/11/14 06:42:55;;;;;;;53.70;24.88;;;;;;;6.44;100.00;101368.28;4986441;28;20045;-77
2022/11/14 06:45:39;;;;;;;51.08;26.42;;;;;;;6.29;100.00;101350.91;4985589;28;20048;-76
2022/11/14 06:48:23;;;;;;;55.58;24.92;;;;;;;6.29;100.00;101335.81;4985352;28;20722;-77
2022/11/14 06:51:09;;;;;;;52.47;26.65;;;;;;;6.29;100.00;101357.03;4982163;28;20514;-77
2022/11/14 06:53:53;;;;;;;;;;;;;;;6.10;100.00;101348.84;4984454;28;20057;-76
2022/11/14 06:56:37;;;;;;;49.08;24.73;;;;;;;6.14;100.00;101363.56;4983174;28;19980;-77
2022/11/14 06:59:21;;;;;;;51.40;25.23;;;;;;;6.02;100.00;101353.91;4982356;28;20040;-77
2022/11/14 07:02:05;;;;;;;51.72;26.73;;;;;;;6.03;100.00;101342.31;4982681;28;20091;-77
2022/11/14 07:04:49;;;;;;;51.20;25.25;;;;;;;5.98;100.00;101336.53;4985670;28;20098;-77
2022/11/14 07:07:33;;;;;;;64.03;28.80;;;;;;;5.98;100.00;101349.78;4987201;28;20065;-76
2022/11/14 07:10:16;;;;;;;55.72;27.63;;;;;;;5.95;100.00;101331.44;4987517;28;20044;-77
2022/11/14 07:13:00;;;;;;;62.63;27.95;;;;;;;5.83;100.00;101328.78;4985888;28;20045;-77
2022/11/14 07:15:51;;;;;;;51.58;26.80;;;;;;;5.92;100.00;101349.28;4987671;28;20061;-76
2022/11/14 07:18:35;;;;;;;59.72;28.40;;;;;;;5.84;100.00;101349.00;4990415;28;20123;-76
2022/11/14 07:21:19;;;;;;;56.45;27.58;;;;;;;5.87;100.00;101361.16;4988915;28;20045;-76
2022/11/14 07:24:04;;;;;;;63.90;30.52;;;;;;;5.85;100.00;101355.13;4985481;28;20109;-76
2022/11/14 07:26:48;;;;;;;59.65;28.35;;;;;;;5.89;100.00;101360.09;4986995;28;20061;-76
2022/11/14 07:29:31;;;;;;;63.45;28.52;;;;;;;5.87;100.00;101354.06;4986674;28;20100;-77
2022/11/14 07:32:15;;;;;;;62.97;29.35;;;;;;;5.88;100.00;101352.28;4987620;28;20073;-76
2022/11/14 07:34:59;;;;;;;63.35;30.35;;;;;;;5.92;100.00;101359.88;4984789;28;20049;-77
2022/11/14 07:37:43;;;;;;;61.08;29.83;;;;;;;5.82;100.00;101356.22;4991533;28;20478;-76
2022/11/14 07:40:28;;;;;;;64.60;28.55;;;;;;;5.80;100.00;101371.38;4984700;28;20517;-76
2022/11/14 07:43:12;;;;;;;67.55;29.35;;;;;;;5.89;100.00;101360.09;4985397;28;20057;-77
2022/11/14 07:46:00;;;;;;;68.55;31.15;;;;;;;5.82;100.00;101348.28;4983010;28;20057;-77
2022/11/14 07:48:44;;;;;;;67.20;30.65;;;;;;;5.91;100.00;101352.88;4986047;28;20052;-75
2022/11/14 07:51:28;;;;;;;74.43;31.20;;;;;;;5.99;100.00;101348.81;4980501;28;20523;-76
2022/11/14 07:54:12;;;;;;;69.82;29.10;;;;;;;5.96;100.00;101344.59;4930581;28;20727;-76
2022/11/14 07:56:56;;;;;;;66.03;31.33;;;;;;;5.96;100.00;101346.41;4954688;28;20042;-76
2022/11/14 07:59:40;;;;;;;68.97;30.73;;;;;;;5.95;100.00;101344.69;4985357;28;20108;-76
2022/11/14 08:02:24;;;;;;;70.55;31.88;;;;;;;5.89;100.00;101338.03;4984095;28;20093;-76
2022/11/14 08:05:08;;;;;;;69.25;31.92;;;;;;;5.91;100.00;101334.31;4981109;28;20538;-77
2022/11/14 08:07:52;;;;;;;68.85;32.53;;;;;;;5.92;100.00;101349.28;4995411;28;20578;-75
2022/11/14 08:10:36;;;;;;;73.03;32.42;;;;;;;5.93;100.00;101364.19;4993117;28;20053;-75
2022/11/14 08:13:20;;;;;;;72.95;33.22;;;;;;;5.85;100.00;101348.06;4987056;28;20073;-76
2022/11/14 08:16:09;;;;;;;67.93;32.45;;;;;;;6.00;100.00;101355.81;4986646;28;20104;-77
2022/11/14 08:18:53;;;;;;;72.82;30.23;;;;;;;6.03;100.00;101359.06;4979274;28;20133;-76
2022/11/14 08:21:37;;;;;;;75.40;33.38;;;;;;;5.89;100.00;101352.13;4932417;28;20061;-76
2022/11/14 08:24:21;;;;;;;80.10;31.70;;;;;;;5.93;100.00;101356.25;4989853;28;20069;-77
2022/11/14 08:27:05;;;;;;;72.53;33.42;;;;;;;5.88;100.00;101352.28;4991930;28;20061;-76
2022/11/14 08:29:50;;;;;;;71.47;30.17;;;;;;;5.93;100.00;101356.25;4991091;28;20064;-76
2022/11/14 08:32:34;;;;;;;75.80;34.65;;;;;;;6.08;100.00;101364.00;4987888;28;20506;-77
2022/11/14 08:35:18;;;;;;;68.70;31.85;;;;;;;6.12;100.00;101361.00;4996711;28;20113;-77
2022/11/14 08:38:01;;;;;;;72.18;34.83;;;;;;;6.20;100.00;101359.56;4983722;28;20581;-76
2022/11/14 08:40:45;;;;;;;71.80;31.60;;;;;;;6.08;100.00;101335.69;4987978;28;20045;-77
2022/11/14 08:43:30;;;;;;;71.25;33.22;;;;;;;6.14;100.00;101331.72;4988044;28;20431;-75
2022/11/14 08:46:15;;;;;;;75.15;33.13;;;;;;;6.15;100.00;101316.66;4983827;28;20053;-76
2022/11/14 08:48:58;;;;;;;76.70;33.05;;;;;;;6.26;100.00;101316.69;4986246;28;20100;-76
2022/11/14 08:51:43;;;;;;;76.53;33.65;;;;;;;6.14;100.00;101307.88;4984580;28;20384;-77
2022/11/14 08:54:27;;;;;;;73.13;32.58;;;;;;;6.10;100.00;101303.78;4985911;28;20487;-75
2022/11/14 08:57:14;;;;;;;73.70;32.95;;;;;;;6.11;100.00;101305.44;4983617;28;20160;-77
2022/11/14 08:59:58;;;;;;;69.65;32.13;;;;;;;6.10;100.00;101303.78;4996563;28;20514;-77
2022/11/14 09:02:42;;;;;;;79.70;32.67;;;;;;;5.91;100.00;101291.06;4986480;28;20212;-77
2022/11/14 09:05:26;;;;;;;77.07;32.50;;;;;;;5.99;100.00;101296.63;4987731;28;20053;-76
2022/11/14 09:08:10;;;;;;;71.80;30.52;;;;;;;6.15;100.00;101311.38;4986353;28;20125;-76
2022/11/14 09:10:54;;;;;;;72.45;30.23;;;;;;;5.96;100.00;101298.69;4997954;28;20036;-77
2022/11/14 09:13:38;;;;;;;73.57;32.58;;;;;;;5.89;100.00;101280.56;4996910;28;20060;-77
2022/11/14 09:16:22;;;;;;;71.93;31.50;;;;;;;5.91;100.00;101277.81;4986576;28;20193;-77
2022/11/14 09:19:06;;;;;;;74.30;32.05;;;;;;;5.86;100.00;101280.81;4986834;28;20103;-76
2022/11/14 09:21:50;;;;;;;75.00;34.50;;;;;;;5.92;100.00;101283.00;4989899;28;20627;-77
2022/11/14 09:24:34;;;;;;;72.03;31.95;;;;;;;5.82;100.00;101263.47;4986552;28;20506;-76
2022/11/14 09:27:18;;;;;;;73.78;33.22;;;;;;;5.90;100.00;101269.03;4988768;28;20049;-76
2022/11/14 09:30:03;;;;;;;66.35;32.35;;;;;;;5.91;100.00;101259.28;4984092;28;20049;-76
2022/11/14 09:32:47;;;;;;;68.32;31.08;;;;;;;5.96;100.00;101264.25;4986710;28;20045;-75
2022/11/14 09:35:31;;;;;;;72.97;32.13;;;;;;;5.99;100.00;101256.88;5003830;28;20568;-75
2022/11/14 09:38:15;;;;;;;79.30;33.70;;;;;;;5.62;100.00;101230.59;5002514;28;20053;-76
2022/11/14 09:41:23;;;;;;;88.13;34.80;;;;;;;5.57;100.00;101259.25;4985581;28;20129;-78
2022/11/14 09:44:41;;;;;;;86.80;36.03;;;;;;;5.63;100.00;101284.41;4990682;28;20095;-77
2022/11/14 09:47:29;;;;;;;74.38;33.55;;;;;;;5.63;100.00;101292.34;4983908;28;20068;-77
2022/11/14 09:50:39;;;;;;;83.50;35.90;;;;;;;5.69;100.00;101310.44;4985571;28;20511;-77
2022/11/14 09:53:38;;;;;;;78.88;36.03;;;;;;;5.87;100.00;101305.50;4989150;28;20085;-77
2022/11/14 09:56:25;;;;;;;83.80;35.47;;;;;;;5.65;100.00;101283.31;4986375;28;20108;-76
2022/11/14 09:59:13;;;;;;;81.88;32.20;;;;;;;5.71;100.00;101289.94;4984949;28;20382;-75
2022/11/14 10:02:30;;;;;;;72.80;33.45;;;;;;;5.64;100.00;101265.75;4985082;28;20049;-76
2022/11/14 10:05:24;;;;;;;74.65;33.03;;;;;;;5.71;100.00;101260.81;4989390;28;20141;-77
2022/11/14 10:08:59;;;;;;;68.78;32.00;;;;;;;5.56;100.00;101236.34;4987211;28;20045;-76
2022/11/14 10:12:06;;;;;;;72.40;30.35;;;;;;;5.56;100.00;101235.50;4981817;28;20104;-75
2022/11/14 10:15:10;;;;;;;83.75;32.58;;;;;;;5.68;100.00;101226.59;4987275;28;20415;-76
2022/11/14 10:18:13;;;;;;;76.82;32.95;;;;;;;5.63;100.00;101221.66;4987543;28;20048;-75
2022/11/14 10:21:12;;;;;;;82.90;35.00;;;;;;;5.75;100.00;101230.47;4986090;28;20427;-75
2022/11/14 10:24:05;;;;;;;78.75;31.23;;;;;;;5.74;100.00;101233.25;4992125;28;20049;-75
2022/11/14 10:27:13;;;;;;;76.20;33.95;;;;;;;5.85;100.00;101238.53;4983437;28;20092;-76
2022/11/14 10:29:57;;;;;;;76.15;33.90;;;;;;;5.82;100.00;101236.97;4992055;28;20113;-76
2022/11/14 10:33:00;;;;;;;82.75;34.63;;;;;;;5.77;100.00;101228.53;4985915;28;20113;-76
2022/11/14 10:36:05;;;;;;;78.13;33.20;;;;;;;5.91;100.00;101233.59;4985105;28;20049;-80
2022/11/14 10:38:59;;;;;;;82.82;34.03;;;;;;;5.98;100.00;101231.34;4988287;28;20093;-76
2022/11/14 10:41:45;;;;;;;84.35;33.85;;;;;;;5.83;100.00;101225.44;4990887;28;20092;-76
2022/11/14 10:44:46;;;;;;;86.30;35.42;;;;;;;5.96;100.00;101227.97;5009124;28;20164;-76
2022/11/14 10:47:39;;;;;;;76.32;33.15;;;;;;;5.98;100.00;101231.34;4985855;28;20157;-76
2022/11/14 10:50:41;;;;;;;81.88;33.30;;;;;;;6.03;100.00;101229.19;4989145;28;20122;-76
2022/11/14 10:53:37;;;;;;;73.25;34.22;;;;;;;6.12;100.00;101217.00;4990329;28;20049;-75
2022/11/14 10:56:22;;;;;;;75.97;33.30;;;;;;;6.10;100.00;101205.69;5000812;28;20053;-75
2022/11/14 10:59:07;;;;;;;71.03;32.90;;;;;;;6.16;100.00;101197.25;5009770;28;20056;-75
2022/11/14 11:01:55;;;;;;;76.07;33.28;;;;;;;6.24;100.00;101189.50;5009881;28;20993;-76
2022/11/14 11:04:41;;;;;;;77.93;34.35;;;;;;;6.38;100.00;101176.94;4990005;28;20577;-76
2022/11/14 11:13:41;;;;;;;67.95;32.00;;;;;;;6.63;100.00;101144.78;4997783;28;20052;-75
2022/11/14 11:16:27;;;;;;;65.28;30.25;;;;;;;6.66;100.00;101130.44;4989838;28;20050;-75
2022/11/14 11:19:22;;;;;;;66.47;30.42;;;;;;;6.79;100.00;101115.16;4983669;28;20042;-76
2022/11/14 11:22:25;;;;;;;71.40;31.67;;;;;;;7.05;100.00;101099.69;4990689;28;20053;-76
2022/11/14 11:25:24;;;;;;;64.18;30.35;;;;;;;7.01;100.00;101069.06;4987997;28;20560;-75
2022/11/14 11:28:13;;;;;;;67.18;30.27;;;;;;;7.14;100.00;101035.19;4987766;28;20045;-76
2022/11/14 11:31:04;;;;;;;63.10;30.35;;;;;;;7.33;100.00;101017.63;4959474;28;20111;-75
2022/11/14 11:33:48;;;;;;;67.28;32.90;;;;;;;7.73;100.00;101011.44;4944585;28;20045;-77
2022/11/14 11:36:38;;;;;;;59.47;28.02;;;;;;;8.02;100.00;100983.03;4988140;28;20049;-77
2022/11/14 11:39:28;;;;;;;64.68;30.58;;;;;;;7.55;100.00;100905.81;4991726;28;20581;-76
2022/11/14 11:42:19;;;;;;;63.72;31.83;;;;;;;7.39;100.00;100903.69;4992042;28;20053;-76
2022/11/14 11:45:11;;;;;;;64.90;31.92;;;;;;;7.28;100.00;100877.28;4996225;28;20049;-76
2022/11/14 11:48:15;;;;;;;58.67;28.88;;;;;;;7.56;100.00;100923.44;4990302;28;20046;-75
2022/11/14 11:51:01;;;;;;;62.58;29.27;;;;;;;8.21;100.00;100920.19;4987675;28;20048;-75
2022/11/14 11:53:56;;;;;;;59.85;30.77;;;;;;;8.23;100.00;100820.66;4992090;28;20041;-76
2022/11/14 11:56:42;;;;;;;58.70;28.93;;;;;;;8.78;100.00;100817.22;4990336;28;20488;-76
2022/11/14 11:59:45;;;;;;;61.20;30.70;;;;;;;8.55;100.00;100715.66;4989122;28;20081;-76
2022/11/14 12:02:29;;;;;;;57.13;29.48;;;;;;;9.22;100.00;100736.56;4989228;28;20049;-76
2022/11/14 12:05:16;;;;;;;58.35;27.67;;;;;;;9.17;100.00;100630.47;4990108;28;20092;-76
2022/11/14 12:08:05;;;;;;;57.58;28.35;;;;;;;9.38;100.00;100597.31;4988143;28;20048;-76
2022/11/14 12:10:50;;;;;;;59.40;28.88;;;;;;;8.58;100.00;100521.09;4991507;28;20084;-75
2022/11/14 12:14:02;;;;;;;56.93;30.30;;;;;;;9.37;100.00;100633.78;4982869;28;20054;-76
2022/11/14 12:17:15;;;;;;;54.03;28.25;;;;;;;9.57;100.00;100572.25;4985178;28;20447;-75
2022/11/14 12:20:20;;;;;;;58.03;28.23;;;;;;;9.67;100.00;100525.00;4985478;28;20126;-75
2022/11/14 12:23:32;;;;;;;56.95;28.77;;;;;;;9.50;100.00;100454.78;4984682;28;20041;-76
2022/11/14 12:26:44;;;;;;;56.70;26.55;;;;;;;9.92;100.00;100515.22;4982780;28;20581;-76
2022/11/14 12:30:00;;;;;;;59.05;27.35;;;;;;;9.26;100.00;100394.28;4976688;28;20065;-75
2022/11/14 12:32:54;;;;;;;58.33;28.30;;;;;;;9.66;100.00;100510.81;4986776;28;20045;-75
2022/11/14 12:35:50;;;;;;;54.35;26.05;;;;;;;9.51;100.00;100453.81;4982963;28;20391;-76
2022/11/14 12:38:41;;;;;;;;;;;;;;;9.65;100.00;100442.53;4985154;28;20103;-76
2022/11/14 12:41:33;;;;;;;58.50;28.60;;;;;;;10.35;100.00;100481.28;4982893;28;19928;-75
2022/11/14 12:44:30;;;;;;;61.33;28.95;;;;;;;9.64;100.00;100192.94;4985640;28;20061;-75
2022/11/14 12:47:17;;;;;;;58.25;29.27;;;;;;;9.49;100.00;100232.78;4982917;28;20426;-75